Latest Weather Observations for Kowen Forest

IDN60801

Issued at 6:23 pm EST Saturday 9 May 2026 (issued every 10 minutes, with the page automatically refreshed every 10 minutes)

About weather observations | Map of weather stations | Latest weather observations for NSW | Other Formats
Station Details ID: 250071 Name: KOWEN FOREST (PCS) Lat: -35.31 Lon: 149.32 Height: 720.0 m

Portable automatic weather stations (PAWS) are operated by other organisations, such as Fire and Emergency Services, and are included here by agreement. Portable stations may be deployed to a location for a short period and their location may be subject to change without notice. Wind observations from these stations are provided from heights of either three (3) or ten (10) metres above ground level (AGL).

Data from the previous 72 hours. | See also: Recent months for locations in New South Wales
Date/Time
EST
Temp
°C
App
Temp
°C
Dew
Point
°C
Rel
Hum
%
Delta-T
°C
Wind Press
QNH
hPa
Press
MSL
hPa
Rain since
9am
mm
Dir  Spd
km/h
Gust
km/h
Spd
kts
Gust
kts
09/06:10pm 9.2 7.8 5.6 78 1.7 E 2 4 1 2 1026.5 - 0.0
09/06:00pm 9.6 7.9 6.0 78 1.7 ENE 4 6 2 3 1026.3 - 0.0
09/05:50pm 9.8 7.7 5.9 77 1.9 NE 6 7 3 4 1026.1 - 0.0
09/05:40pm 9.7 7.5 6.1 78 1.7 NE 7 7 4 4 1026.0 - 0.0
09/05:30pm 10.9 9.3 6.2 73 2.3 ENE 4 6 2 3 1025.9 - 0.0
09/05:20pm 12.0 10.5 6.6 69 2.7 NE 4 6 2 3 1025.7 - 0.0
09/05:10pm 13.3 12.2 7.1 66 3.1 N 2 4 1 2 1025.5 - 0.0
09/05:00pm 15.0 14.0 7.2 59 4.0 WNW 2 4 1 2 1025.4 - 0.0
09/04:50pm 15.8 14.4 7.1 56 4.5 W 4 6 2 3 1025.3 - 0.0
09/04:40pm 16.5 15.0 6.9 53 4.9 W 4 7 2 4 1025.2 - 0.0
09/04:30pm 16.9 14.8 6.0 48 5.5 WSW 6 7 3 4 1025.1 - 0.0
09/04:20pm 17.2 15.2 6.2 48 5.6 SW 6 6 3 3 1025.2 - 0.0
09/04:10pm 17.3 15.2 5.8 46 5.8 SW 6 7 3 4 1025.1 - 0.0
09/04:00pm 17.4 15.7 6.1 47 5.7 SW 4 6 2 3 1025.1 - 0.0
09/03:50pm 17.3 15.2 5.7 46 5.8 WSW 6 7 3 4 1025.0 - 0.0
09/03:40pm 17.4 15.1 5.7 46 5.9 WSW 7 9 4 5 1025.0 - 0.0
09/03:30pm 17.7 15.8 6.6 48 5.7 W 6 11 3 6 1025.0 - 0.0
09/03:20pm 17.8 15.8 6.1 46 6.0 W 6 7 3 4 1024.9 - 0.0
09/03:10pm 17.6 15.9 5.9 46 5.9 SW 4 9 2 5 1024.9 - 0.0
09/03:00pm 17.4 15.3 5.7 46 5.9 SW 6 7 3 4 1024.8 - 0.0
09/02:50pm 17.4 15.3 5.6 45 5.9 WSW 6 9 3 5 1024.9 - 0.0
09/02:40pm 17.2 15.0 5.5 46 5.9 SSW 6 9 3 5 1024.9 - 0.0
09/02:30pm 17.2 15.0 5.5 46 5.9 WSW 6 9 3 5 1025.0 - 0.0
09/02:20pm 17.0 14.9 5.6 47 5.7 W 6 9 3 5 1025.0 - 0.0
09/02:10pm 16.8 14.5 5.5 47 5.7 WSW 7 11 4 6 1025.0 - 0.0
09/02:00pm 16.8 14.7 5.9 48 5.5 S 6 9 3 5 1024.9 - 0.0
09/01:50pm 16.6 13.8 5.3 47 5.6 S 9 11 5 6 1025.0 - 0.0
09/01:40pm 16.5 14.3 5.5 48 5.5 SW 6 9 3 5 1025.0 - 0.0
09/01:30pm 16.2 13.5 5.4 48 5.4 SW 9 11 5 6 1025.0 - 0.0
09/01:20pm 16.7 14.5 5.1 46 5.8 SW 6 9 3 5 1025.0 - 0.0
09/01:10pm 16.4 14.6 5.4 48 5.5 W 4 13 2 7 1025.1 - 0.0
09/01:00pm 16.1 13.9 5.2 48 5.4 W 6 13 3 7 1025.2 - 0.0
09/12:50pm 15.5 13.0 4.7 48 5.3 W 7 13 4 7 1025.3 - 0.0
09/12:40pm 15.5 13.1 5.2 50 5.1 W 7 11 4 6 1025.5 - 0.0
09/12:30pm 15.4 13.0 5.1 50 5.1 WSW 7 13 4 7 1025.6 - 0.0
09/12:20pm 15.1 12.7 5.2 51 4.9 WSW 7 13 4 7 1025.8 - 0.0
09/12:10pm 14.8 12.4 5.2 52 4.7 SSW 7 11 4 6 1026.0 - 0.0
09/12:00pm 14.8 12.1 5.6 54 4.6 SW 9 13 5 7 1026.1 - 0.0
09/11:50am 14.5 11.8 5.4 54 4.5 WSW 9 13 5 7 1026.2 - 0.0
09/11:40am 14.3 11.1 5.1 54 4.5 WSW 11 13 6 7 1026.3 - 0.0
09/11:30am 14.4 11.7 5.4 54 4.4 SW 9 13 5 7 1026.3 - 0.0
09/11:20am 14.2 11.8 5.1 54 4.4 SW 7 11 4 6 1026.2 - 0.0
09/11:10am 14.0 11.7 5.5 56 4.2 W 7 11 4 6 1026.3 - 0.0
09/11:00am 14.1 11.8 5.5 56 4.2 SSW 7 9 4 5 1026.4 - 0.0
09/10:50am 13.8 11.7 6.0 59 3.9 SW 6 11 3 6 1026.5 - 0.0
09/10:40am 13.6 11.3 5.8 59 3.8 SSW 7 11 4 6 1026.4 - 0.0
09/10:30am 13.3 10.5 5.0 57 4.0 S 9 15 5 8 1026.5 - 0.0
09/10:20am 13.2 10.4 5.0 57 4.0 S 9 15 5 8 1026.6 - 0.0
09/10:10am 12.8 9.6 5.2 60 3.7 SSW 11 13 6 7 1026.6 - 0.0
09/10:00am 12.9 10.7 5.5 60 3.6 SSW 6 13 3 7 1026.6 - 0.0
09/09:50am 12.4 11.2 6.5 67 2.9 S 2 6 1 3 1026.6 - 0.0
09/09:40am 11.6 10.4 6.6 71 2.5 W 2 7 1 4 1026.7 - 0.0
09/09:30am 11.2 10.0 6.4 72 2.4 WSW 2 4 1 2 1026.8 - 0.0
09/09:20am 10.5 9.4 6.8 78 1.8 WSW 2 4 1 2 1026.7 - 0.0
09/09:10am 9.6 8.8 8.0 90 0.8 SW 2 4 1 2 1026.8 - 0.0
09/09:00am 9.0 8.2 8.2 95 0.4 SSW 2 2 1 1 1026.7 - 0.0
09/08:50am 8.5 8.0 7.8 95 0.3 CALM 0 2 0 1 1026.8 - 0.0
09/08:40am 7.7 7.0 7.1 96 0.3 CALM 0 0 0 0 1026.7 - 0.0
09/08:30am 6.7 5.8 6.1 96 0.3 CALM 0 2 0 1 1026.5 - 0.0
09/08:20am 5.6 4.5 5.0 96 0.3 CALM 0 0 0 0 1026.4 - 0.0
09/08:10am 4.4 3.1 3.9 97 0.2 CALM 0 0 0 0 1026.3 - 0.0
09/08:00am 4.3 3.0 3.9 97 0.2 CALM 0 0 0 0 1026.2 - 0.0
09/07:50am 3.8 2.4 3.4 97 0.2 CALM 0 0 0 0 1026.1 - 0.0
09/07:40am 2.9 0.6 2.5 97 0.2 ENE 4 4 2 2 1026.0 - 0.0
09/07:30am 2.5 0.5 2.2 98 0.1 NE 2 4 1 2 1026.0 - 0.0
09/07:20am 2.3 0.2 1.9 97 0.2 E 2 6 1 3 1026.0 - 0.0
09/07:10am 1.1 -1.6 0.6 96 0.2 NNE 4 6 2 3 1025.9 - 0.0
09/07:00am 1.7 -0.1 1.3 97 0.2 CALM 0 0 0 0 1025.7 - 0.0
09/06:50am 0.9 -1.4 0.5 97 0.2 N 2 6 1 3 1025.6 - 0.0
09/06:40am 1.3 -0.9 0.9 97 0.2 NE 2 4 1 2 1025.4 - 0.0
09/06:30am 1.6 -0.6 1.1 96 0.2 WSW 2 4 1 2 1025.3 - 0.0
09/06:20am 1.7 -0.8 1.3 97 0.2 ENE 4 6 2 3 1025.0 - 0.0
09/06:10am 1.3 -1.3 0.8 96 0.2 NNE 4 6 2 3 1025.0 - 0.0
09/06:00am 2.3 0.6 1.7 96 0.2 CALM 0 2 0 1 1024.9 - 0.0
09/05:50am 2.6 0.9 2.1 96 0.2 CALM 0 4 0 2 1024.7 - 0.0
09/05:40am 2.7 1.1 2.2 96 0.2 CALM 0 2 0 1 1024.6 - 0.0
09/05:30am 2.6 0.2 2.1 96 0.2 ENE 4 4 2 2 1024.5 - 0.0
09/05:20am 3.4 0.8 3.0 97 0.2 ENE 6 7 3 4 1024.4 - 0.0
09/05:10am 3.3 1.0 2.7 96 0.3 NNE 4 7 2 4 1024.3 - 0.0
09/05:00am 3.9 1.7 3.4 97 0.2 ENE 4 7 2 4 1024.2 - 0.0
09/04:50am 4.2 1.5 3.7 97 0.2 NNE 7 11 4 6 1024.3 - 0.0
09/04:40am 4.1 1.6 3.6 97 0.2 ENE 6 7 3 4 1024.1 - 0.0
09/04:30am 3.7 1.1 3.0 95 0.3 NE 6 7 3 4 1024.2 - 0.0
09/04:20am 4.3 2.5 3.7 96 0.3 NNE 2 6 1 3 1024.1 - 0.0
09/04:10am 4.8 2.4 4.2 96 0.3 N 6 11 3 6 1024.1 - 0.0
09/04:00am 5.2 3.2 4.4 95 0.4 E 4 4 2 2 1024.0 - 0.0
09/03:50am 5.3 3.7 4.6 95 0.3 SE 2 4 1 2 1024.0 - 0.0
09/03:40am 5.2 3.2 4.4 95 0.4 NNW 4 9 2 5 1024.0 - 0.0
09/03:30am 5.7 3.7 4.6 93 0.5 NE 4 9 2 5 1023.9 - 0.0
09/03:20am 6.5 5.1 5.4 93 0.5 ENE 2 4 1 2 1023.9 - 0.0
09/03:10am 6.8 5.1 5.9 94 0.4 E 4 4 2 2 1024.0 - 0.0
09/03:00am 7.0 6.0 5.8 92 0.6 CALM 0 2 0 1 1024.1 - 0.0
09/02:50am 7.3 6.5 6.3 93 0.5 CALM 0 2 0 1 1024.1 - 0.0
09/02:40am 7.4 6.5 6.2 92 0.6 CALM 0 2 0 1 1024.0 - 0.0
09/02:30am 7.7 6.5 6.4 91 0.6 N 2 6 1 3 1023.9 - 0.0
09/02:20am 8.0 7.2 6.7 91 0.6 CALM 0 2 0 1 1023.8 - 0.0
09/02:10am 8.1 7.3 6.7 91 0.7 CALM 0 4 0 2 1024.0 - 0.0
09/02:00am 8.3 7.5 6.7 90 0.8 CALM 0 0 0 0 1023.9 - 0.0
09/01:50am 8.5 7.4 6.8 89 0.8 S 2 4 1 2 1023.9 - 0.0
09/01:40am 8.6 7.8 6.7 88 0.9 CALM 0 2 0 1 1024.0 - 0.0
09/01:30am 8.6 7.1 6.7 88 0.9 NE 4 6 2 3 1023.9 - 0.0
09/01:20am 8.8 7.7 6.7 87 1.0 NNE 2 4 1 2 1023.8 - 0.0
09/01:10am 8.7 7.9 6.7 87 1.0 CALM 0 2 0 1 1023.8 - 0.0
09/01:00am 8.6 7.4 6.6 87 1.0 NE 2 4 1 2 1023.9 - 0.0
09/12:50am 8.6 7.1 6.6 87 1.0 NNE 4 7 2 4 1023.8 - 0.0
09/12:40am 8.6 6.7 6.7 88 0.9 NNE 6 6 3 3 1023.8 - 0.0
09/12:30am 8.8 7.3 6.6 86 1.1 N 4 6 2 3 1023.8 - 0.0
09/12:20am 9.1 8.3 6.7 85 1.2 CALM 0 2 0 1 1023.7 - 0.0
09/12:10am 9.1 8.0 6.7 85 1.2 NNE 2 4 1 2 1023.6 - 0.0
09/12:00am 9.0 7.8 6.6 85 1.2 N 2 4 1 2 1023.5 - 0.0
 
Date/Time
EST
Temp
°C
App
Temp
°C
Dew
Point
°C
Rel
Hum
%
Delta-T
°C
Wind Press
QNH
hPa
Press
MSL
hPa
Rain since
9am
mm
Dir  Spd
km/h
Gust
km/h
Spd
kts
Gust
kts
08/11:50pm 8.9 7.7 6.5 85 1.2 E 2 4 1 2 1023.5 - 0.0
08/11:40pm 8.9 8.1 6.4 84 1.2 CALM 0 2 0 1 1023.5 - 0.0
08/11:30pm 8.9 8.0 6.2 83 1.3 CALM 0 2 0 1 1023.5 - 0.0
08/11:20pm 8.9 7.6 6.1 82 1.3 NNE 2 6 1 3 1023.5 - 0.0
08/11:10pm 8.8 6.7 6.0 82 1.3 NE 6 6 3 3 1023.6 - 0.0
08/11:00pm 8.8 6.6 6.0 82 1.3 NE 7 9 4 5 1023.5 - 0.0
08/10:50pm 9.3 7.2 5.8 79 1.7 NNE 6 9 3 5 1023.5 - 0.0
08/10:40pm 9.5 7.8 5.8 78 1.8 NNE 4 9 2 5 1023.5 - 0.0
08/10:30pm 9.8 8.4 5.7 75 2.0 N 2 6 1 3 1023.4 - 0.0
08/10:20pm 9.8 8.0 5.6 75 2.0 NW 4 6 2 3 1023.5 - 0.0
08/10:10pm 9.8 8.4 5.6 75 2.0 NW 2 6 1 3 1023.4 - 0.0
08/10:00pm 9.9 8.1 5.5 74 2.1 WNW 4 7 2 4 1023.4 - 0.0
08/09:50pm 9.9 7.7 5.5 74 2.1 WNW 6 7 3 4 1023.3 - 0.0
08/09:40pm 9.9 7.6 5.5 74 2.1 WNW 7 11 4 6 1023.4 - 0.0
08/09:30pm 9.8 7.6 5.5 74 2.0 WNW 6 7 3 4 1023.2 - 0.0
08/09:20pm 9.8 7.6 5.5 74 2.0 WNW 6 9 3 5 1023.2 - 0.0
08/09:10pm 9.7 7.9 5.4 74 2.0 WNW 4 7 2 4 1023.3 - 0.0
08/09:00pm 9.6 8.2 5.4 75 2.0 NW 2 4 1 2 1023.3 - 0.0
08/08:50pm 9.7 7.9 5.4 74 2.0 NNW 4 6 2 3 1023.2 - 0.0
08/08:40pm 9.7 7.5 5.3 74 2.1 NW 6 7 3 4 1023.2 - 0.0
08/08:30pm 9.6 7.4 5.2 74 2.1 WNW 6 7 3 4 1023.2 - 0.0
08/08:20pm 9.6 7.2 5.2 74 2.1 W 7 7 4 4 1023.0 - 0.0
08/08:10pm 9.6 7.2 5.1 73 2.1 WNW 7 9 4 5 1022.9 - 0.0
08/08:00pm 9.7 6.9 5.1 73 2.2 WNW 9 13 5 7 1022.9 - 0.0
08/07:50pm 9.5 6.7 5.1 74 2.1 WNW 9 13 5 7 1022.9 - 0.0
08/07:40pm 9.3 5.7 5.1 75 2.0 W 13 17 7 9 1022.6 - 0.0
08/07:30pm 9.2 6.4 5.1 75 1.9 NW 9 13 5 7 1022.6 - 0.0
08/07:20pm 9.2 6.0 5.2 76 1.9 WNW 11 15 6 8 1022.6 - 0.0
08/07:10pm 9.3 5.7 5.1 75 2.0 WNW 13 17 7 9 1022.3 - 0.0
08/07:00pm 9.2 5.6 5.1 75 1.9 WNW 13 17 7 9 1022.2 - 0.0
08/06:50pm 9.2 5.6 5.1 75 1.9 WNW 13 19 7 10 1022.0 - 0.0
08/06:40pm 9.2 4.9 5.1 75 1.9 WNW 17 20 9 11 1021.7 - 0.0
08/06:30pm 9.2 4.5 5.2 76 1.9 WNW 19 20 10 11 1021.6 - 0.0
08/06:20pm 9.2 4.5 5.3 76 1.8 WNW 19 20 10 11 1021.4 - 0.0
08/06:10pm 9.2 4.9 5.3 76 1.8 WNW 17 20 9 11 1021.2 - 0.0
08/06:00pm 9.2 4.6 5.4 77 1.8 WNW 19 22 10 12 1021.0 - 0.0
08/05:50pm 9.3 4.7 5.5 77 1.8 WNW 19 22 10 12 1020.7 - 0.0
08/05:40pm 9.6 5.0 5.6 76 1.9 WNW 19 20 10 11 1020.6 - 0.0
08/05:30pm 9.9 5.1 5.5 74 2.1 WNW 20 24 11 13 1020.5 - 0.0
08/05:20pm 10.2 5.4 5.4 72 2.3 WNW 20 22 11 12 1020.3 - 0.0
08/05:10pm 10.6 5.8 5.4 70 2.5 WNW 20 24 11 13 1020.2 - 0.0
08/05:00pm 11.2 5.9 4.8 64 3.0 WNW 22 28 12 15 1019.9 - 0.0
08/04:50pm 11.8 6.9 4.9 62 3.3 WNW 20 26 11 14 1019.9 - 0.0
08/04:40pm 12.1 7.2 5.0 62 3.4 WNW 20 24 11 13 1019.8 - 0.0
08/04:30pm 12.3 7.3 4.8 60 3.6 WNW 20 26 11 14 1019.4 - 0.0
08/04:20pm 12.3 7.0 4.8 60 3.6 WNW 22 26 12 14 1019.5 - 0.0
08/04:10pm 12.8 7.8 4.8 58 3.8 WNW 20 26 11 14 1019.4 - 0.0
08/04:00pm 12.9 7.6 4.8 58 3.9 W 22 26 12 14 1019.2 - 0.0
08/03:50pm 13.0 6.5 4.7 57 4.0 W 28 32 15 17 1019.0 - 0.0
08/03:40pm 13.1 7.0 4.7 56 4.0 W 26 33 14 18 1018.9 - 0.0
08/03:30pm 13.2 7.1 4.8 56 4.0 WNW 26 32 14 17 1018.8 - 0.0
08/03:20pm 13.2 6.7 4.8 56 4.0 WNW 28 32 15 17 1018.8 - 0.0
08/03:10pm 13.3 7.6 4.8 56 4.1 WNW 24 32 13 17 1018.7 - 0.0
08/03:00pm 13.0 7.0 5.1 58 3.8 WNW 26 30 14 16 1018.6 - 0.0
08/02:50pm 12.7 7.5 5.7 62 3.4 NW 22 28 12 15 1018.8 - 0.0
08/02:40pm 12.3 6.7 5.6 63 3.3 NW 24 30 13 16 1018.7 - 0.0
08/02:30pm 12.4 6.5 5.8 64 3.2 NW 26 30 14 16 1018.5 - 0.0
08/02:20pm 12.9 7.8 5.8 62 3.5 NW 22 26 12 14 1018.4 - 0.0
08/02:10pm 12.8 7.6 5.5 61 3.6 NW 22 30 12 16 1018.5 - 0.0
08/02:00pm 12.3 6.0 5.5 63 3.3 NW 28 30 15 16 1018.5 - 0.0
08/01:50pm 12.4 6.1 5.7 63 3.3 WNW 28 35 15 19 1018.3 - 0.0
08/01:40pm 12.2 5.9 5.5 63 3.2 WNW 28 35 15 19 1018.2 - 0.0
08/01:30pm 12.3 6.4 5.8 64 3.2 WNW 26 32 14 17 1018.1 - 0.0
08/01:20pm 11.9 5.1 5.3 64 3.2 WNW 30 37 16 20 1018.2 - 0.0
08/01:10pm 12.1 5.8 5.5 64 3.2 WNW 28 33 15 18 1018.1 - 0.0
08/01:00pm 11.7 4.9 5.3 65 3.1 WNW 30 35 16 19 1018.2 - 0.0
08/12:50pm 12.0 6.0 5.3 63 3.2 NW 26 32 14 17 1018.4 - 0.0
08/12:40pm 11.7 5.7 5.3 65 3.1 NW 26 33 14 18 1018.6 - 0.0
08/12:30pm 11.6 4.4 5.1 64 3.1 WNW 32 39 17 21 1018.6 - 0.0
08/12:20pm 11.9 4.7 5.1 63 3.3 W 32 37 17 20 1018.6 - 0.0
08/12:10pm 11.6 4.4 4.8 63 3.2 W 32 37 17 20 1018.8 - 0.0
08/12:00pm 11.3 5.2 5.0 65 3.0 WNW 26 33 14 18 1018.9 - 0.0
08/11:50am 10.8 4.8 5.2 68 2.7 WNW 26 30 14 16 1018.9 - 0.0
08/11:40am 10.7 4.3 5.0 68 2.7 WNW 28 41 15 22 1019.0 - 0.0
08/11:30am 10.7 4.2 4.6 66 2.9 WNW 28 33 15 18 1019.2 - 0.0
08/11:20am 10.5 3.6 4.5 66 2.8 WNW 30 33 16 18 1019.2 - 0.0
08/11:10am 10.1 3.6 4.8 69 2.5 NW 28 32 15 17 1019.2 - 0.0
08/11:00am 10.1 4.4 5.1 71 2.4 NW 24 30 13 16 1019.5 - 0.0
08/10:50am 10.1 4.8 4.8 69 2.5 WNW 22 30 12 16 1019.7 - 0.0
08/10:40am 10.1 5.3 4.7 69 2.5 WNW 19 26 10 14 1019.5 - 0.0
08/10:30am 10.0 4.6 4.5 68 2.6 NW 22 26 12 14 1019.6 - 0.0
08/10:20am 10.0 4.6 4.7 69 2.5 WNW 22 26 12 14 1019.7 - 0.0
08/10:10am 9.6 3.8 4.5 70 2.4 NW 24 30 13 16 1019.7 - 0.0
08/10:00am 9.5 3.7 4.6 71 2.3 NW 24 28 13 15 1019.7 - 0.0
08/09:50am 9.4 4.3 4.3 70 2.4 WNW 20 28 11 15 1019.6 - 0.0
08/09:40am 9.3 4.3 4.6 72 2.2 WNW 20 24 11 13 1019.7 - 0.0
08/09:30am 9.1 4.2 4.3 72 2.2 WNW 19 24 10 13 1019.7 - 0.0
08/09:20am 8.8 3.7 4.2 73 2.1 NW 20 26 11 14 1019.7 - 0.0
08/09:10am 8.7 3.6 4.2 73 2.1 NW 20 26 11 14 1019.7 - 0.0
08/09:00am 8.7 4.6 4.3 74 2.0 NNW 15 19 8 10 1019.7 - 0.0
08/08:50am 8.3 3.8 4.2 75 1.9 NNW 17 20 9 11 1019.5 - 0.0
08/08:40am 8.2 3.7 4.1 75 1.9 NNW 17 20 9 11 1019.5 - 0.0
08/08:30am 7.7 2.6 3.9 77 1.7 NW 20 24 11 13 1019.3 - 0.0
08/08:20am 7.4 2.2 3.7 77 1.7 NW 20 24 11 13 1019.2 - 0.0
08/08:10am 7.2 1.2 3.4 77 1.7 NW 24 28 13 15 1019.2 - 0.0
08/08:00am 7.0 1.0 3.4 78 1.6 NW 24 26 13 14 1019.1 - 0.0
08/07:50am 6.7 1.1 3.3 79 1.5 NW 22 26 12 14 1019.4 - 0.0
08/07:40am 6.3 1.0 3.2 80 1.4 NW 20 20 11 11 1019.3 - 0.0
08/07:30am 5.9 0.8 3.1 82 1.2 NW 19 24 10 13 1019.1 - 0.0
08/07:20am 5.2 -0.1 3.0 86 0.9 NW 20 22 11 12 1019.0 - 0.0
08/07:10am 5.0 -0.1 2.9 86 0.9 NW 19 22 10 12 1018.8 - 0.0
08/07:00am 4.9 0.1 2.8 86 0.9 NW 17 20 9 11 1018.8 - 0.0
08/06:40am 4.7 -0.1 2.6 86 0.9 NW 17 20 9 11 1018.5 - 0.0
08/06:30am 4.6 0.2 2.5 86 0.9 NW 15 17 8 9 1018.4 - 0.0
08/06:20am 4.3 0.2 2.4 87 0.8 NNW 13 17 7 9 1018.1 - 0.0
08/06:10am 4.5 -0.3 2.4 86 0.9 NNW 17 20 9 11 1018.1 - 0.0
08/06:00am 4.6 0.1 2.4 86 0.9 NNW 15 19 8 10 1018.3 - 0.0
08/05:50am 4.7 -0.2 2.3 84 1.0 NNW 17 19 9 10 1018.1 - 0.0
08/05:40am 4.9 0.1 2.4 84 1.1 NW 17 19 9 10 1018.5 - 0.0
08/05:30am 4.9 0.4 2.3 83 1.1 NW 15 19 8 10 1018.7 - 0.0
08/05:20am 4.9 0.0 2.2 83 1.1 NW 17 22 9 12 1018.4 - 0.0
08/05:10am 4.6 0.1 2.2 84 1.0 NNW 15 19 8 10 1018.5 - 0.0
08/05:00am 4.5 0.4 2.1 84 1.0 N 13 17 7 9 1018.7 - 0.0
08/04:50am 4.3 0.9 1.9 84 1.0 NNW 9 13 5 7 1018.8 - 0.0
08/04:40am 4.2 1.4 1.8 84 1.0 N 6 7 3 4 1018.9 - 0.0
08/04:30am 4.5 1.6 1.7 82 1.2 N 6 9 3 5 1018.8 - 0.0
08/04:20am 4.6 1.8 1.8 82 1.2 NNW 6 7 3 4 1018.9 - 0.0
08/04:10am 4.9 0.7 1.7 80 1.3 NW 13 19 7 10 1018.6 - 0.0
08/04:00am 4.9 0.3 1.5 79 1.4 NW 15 20 8 11 1018.3 - 0.0
08/03:50am 4.8 0.5 1.3 78 1.4 NW 13 19 7 10 1018.3 - 0.0
08/03:40am 4.7 0.4 1.1 77 1.5 NW 13 17 7 9 1018.4 - 0.0
08/03:30am 4.7 0.4 1.0 77 1.5 NW 13 19 7 10 1018.4 - 0.0
08/03:20am 4.7 0.4 0.8 76 1.6 NW 13 17 7 9 1018.6 - 0.0
08/03:10am 4.8 0.8 0.7 75 1.7 NNW 11 13 6 7 1018.7 - 0.0
08/03:00am 4.8 0.4 0.5 74 1.7 NW 13 15 7 8 1018.6 - 0.0
08/02:50am 4.8 0.8 0.5 74 1.7 NNW 11 15 6 8 1018.7 - 0.0
08/02:40am 4.7 0.3 0.4 74 1.7 NW 13 17 7 9 1018.8 - 0.0
08/02:30am 4.6 0.2 0.3 73 1.7 NW 13 17 7 9 1018.9 - 0.0
08/02:20am 4.4 0.4 0.3 75 1.6 NW 11 15 6 8 1018.8 - 0.0
08/02:10am 4.6 0.2 0.3 73 1.7 NW 13 19 7 10 1019.0 - 0.0
08/02:00am 4.7 -0.1 0.3 73 1.8 NW 15 17 8 9 1018.9 - 0.0
08/01:50am 4.7 -0.1 0.3 73 1.8 WNW 15 20 8 11 1019.1 - 0.0
08/01:40am 4.8 -0.4 0.4 73 1.8 WNW 17 19 9 10 1019.3 - 0.0
08/01:30am 4.7 -0.5 0.3 73 1.8 WNW 17 20 9 11 1019.3 - 0.0
08/01:20am 4.7 -0.5 0.4 74 1.7 NW 17 20 9 11 1019.6 - 0.0
08/01:10am 4.6 -0.6 0.3 73 1.7 NW 17 22 9 12 1019.4 - 0.0
08/01:00am 4.6 -0.6 0.3 73 1.7 WNW 17 19 9 10 1019.4 - 0.0
08/12:50am 4.5 -0.7 0.2 73 1.7 WNW 17 20 9 11 1019.3 - 0.0
08/12:40am 4.4 -0.8 -0.1 72 1.8 WNW 17 19 9 10 1019.3 - 0.0
08/12:30am 4.4 -1.3 -0.4 71 1.9 WNW 19 22 10 12 1019.3 - 0.0
08/12:20am 4.4 -1.5 -0.5 70 1.9 WNW 20 24 11 13 1019.5 - 0.0
08/12:10am 4.3 -1.9 -0.6 70 1.9 WNW 22 26 12 14 1019.4 - 0.0
08/12:00am 4.2 -1.7 -0.7 70 1.9 WNW 20 24 11 13 1019.6 - 0.0
 
Date/Time
EST
Temp
°C
App
Temp
°C
Dew
Point
°C
Rel
Hum
%
Delta-T
°C
Wind Press
QNH
hPa
Press
MSL
hPa
Rain since
9am
mm
Dir  Spd
km/h
Gust
km/h
Spd
kts
Gust
kts
07/11:50pm 4.0 -1.3 -0.8 71 1.9 WNW 17 20 9 11 1019.7 - 0.0
07/11:40pm 3.8 -1.2 -0.9 71 1.8 NW 15 20 8 11 1019.9 - 0.0
07/11:30pm 3.7 -0.9 -0.9 72 1.8 NW 13 15 7 8 1020.0 - 0.0
07/11:20pm 3.8 -0.4 -1.0 71 1.8 NNW 11 13 6 7 1020.0 - 0.0
07/11:10pm 4.0 -0.2 -1.0 70 1.9 NNW 11 17 6 9 1020.1 - 0.0
07/11:00pm 4.2 -0.8 -1.1 68 2.0 NNW 15 19 8 10 1020.1 - 0.0
07/10:50pm 4.4 -1.0 -1.3 66 2.2 NW 17 19 9 10 1020.3 - 0.0
07/10:40pm 4.1 -0.9 -1.2 68 2.0 NW 15 17 8 9 1020.4 - 0.0
07/10:30pm 3.8 -1.2 -1.2 70 1.9 NW 15 17 8 9 1020.5 - 0.0
07/10:20pm 3.8 -0.8 -1.0 71 1.8 NW 13 15 7 8 1020.4 - 0.0
07/10:10pm 4.0 -0.6 -1.0 70 1.9 NW 13 17 7 9 1020.5 - 0.0
07/10:00pm 4.2 -0.8 -1.1 68 2.0 WNW 15 20 8 11 1020.6 - 0.0
07/09:50pm 4.3 -1.4 -1.0 68 2.0 WNW 19 24 10 13 1020.6 - 0.0
07/09:40pm 4.4 -1.9 -1.0 68 2.1 W 22 24 12 13 1020.7 - 0.0
07/09:30pm 4.4 -1.9 -0.8 69 2.0 W 22 26 12 14 1020.5 - 0.0
07/09:20pm 4.5 -1.4 -1.0 67 2.1 WNW 20 24 11 13 1020.3 - 0.0
07/09:10pm 4.5 -1.4 -0.9 68 2.1 WNW 20 26 11 14 1020.2 - 0.0
07/09:00pm 4.5 -1.4 -0.7 69 2.0 WNW 20 28 11 15 1020.4 - 0.0
07/08:50pm 4.5 -1.2 -0.8 68 2.1 WNW 19 22 10 12 1020.4 - 0.0
07/08:40pm 4.5 -0.8 -0.7 69 2.0 WNW 17 22 9 12 1020.2 - 0.0
07/08:30pm 4.5 -1.2 -0.7 69 2.0 WNW 19 20 10 11 1020.0 - 0.0
07/08:20pm 4.6 -0.7 -0.7 68 2.1 WNW 17 19 9 10 1019.9 - 0.0
07/08:10pm 4.7 -0.2 -0.7 68 2.1 WNW 15 17 8 9 1020.0 - 0.0
07/08:00pm 4.9 -0.4 -0.7 67 2.2 W 17 20 9 11 1020.0 - 0.0
07/07:50pm 4.9 -1.0 -0.9 66 2.3 W 20 22 11 12 1020.1 - 0.0
07/07:40pm 4.9 -0.8 -0.8 66 2.2 W 19 22 10 12 1019.9 - 0.0
07/07:30pm 5.0 -0.9 -0.9 65 2.3 W 20 24 11 13 1019.9 - 0.0
07/07:20pm 5.1 -0.2 -0.8 65 2.3 W 17 22 9 12 1019.8 - 0.0
07/07:10pm 5.1 -0.2 -0.8 65 2.3 W 17 19 9 10 1019.8 - 0.0
07/07:00pm 5.2 -0.1 -0.7 65 2.3 W 17 20 9 11 1019.8 - 0.0
07/06:50pm 5.5 0.2 -0.9 63 2.5 W 17 20 9 11 1019.7 - 0.0
07/06:40pm 5.8 0.5 -0.9 62 2.6 W 17 19 9 10 1019.6 - 0.0
07/06:30pm 6.1 0.7 -1.1 60 2.8 W 17 19 9 10 1019.9 - 0.0
07/06:20pm 6.3 0.6 -1.1 59 2.9 W 19 22 10 12 1019.6 - 0.0
07/06:10pm 6.5 0.7 -1.2 58 3.0 W 19 22 10 12 1019.4 - 0.0
07/06:00pm 6.6 1.6 -1.1 58 3.0 WSW 15 19 8 10 1019.4 - 0.0
07/05:50pm 6.7 1.3 -1.2 57 3.1 W 17 19 9 10 1019.2 - 0.0
07/05:40pm 6.7 0.9 -1.3 56 3.2 W 19 22 10 12 1018.9 - 0.0
07/05:30pm 6.7 1.6 -2.0 54 3.4 W 15 17 8 9 1018.8 - 0.0
07/05:20pm 6.8 1.2 -2.5 51 3.6 WSW 17 20 9 11 1018.6 - 0.0
07/05:10pm 6.8 0.7 -2.6 51 3.6 WSW 20 22 11 12 1018.4 - 0.0
07/05:00pm 6.8 0.3 -2.7 51 3.6 W 22 24 12 13 1018.2 - 0.0
07/04:50pm 6.9 0.3 -3.0 49 3.7 WSW 22 28 12 15 1018.0 - 0.0
07/04:40pm 6.9 0.4 -2.8 50 3.7 WSW 22 26 12 14 1017.8 - 0.0
07/04:30pm 7.2 -0.1 -3.0 48 3.9 W 26 30 14 16 1017.7 - 0.0
07/04:20pm 7.8 1.2 -3.2 45 4.2 WSW 22 30 12 16 1017.5 - 0.0
07/04:10pm 8.0 1.8 -3.1 45 4.2 WSW 20 28 11 15 1017.5 - 0.0
07/04:00pm 8.3 2.2 -3.6 43 4.5 WSW 19 22 10 12 1017.4 - 0.0
07/03:50pm 8.3 1.3 -3.6 43 4.5 WSW 24 30 13 16 1017.3 - 0.0
07/03:40pm 9.0 2.7 -3.7 40 4.8 WSW 20 26 11 14 1017.2 - 0.0
07/03:30pm 9.5 2.9 -3.2 40 4.9 W 22 30 12 16 1017.1 - 0.0
07/03:20pm 9.1 1.7 -4.0 39 5.0 WSW 26 32 14 17 1016.9 - 0.0
07/03:10pm 8.7 2.0 -4.4 39 4.9 WSW 22 30 12 16 1016.9 - 0.0
07/03:00pm 8.9 1.4 -4.3 39 5.0 WSW 26 32 14 17 1016.9 - 0.0
07/02:50pm 9.7 1.8 -4.5 36 5.4 W 28 35 15 19 1016.6 - 0.0
07/02:40pm 9.8 2.3 -4.3 36 5.4 WSW 26 30 14 16 1016.5 - 0.0
07/02:30pm 9.7 1.5 -4.3 37 5.3 WSW 30 35 16 19 1016.3 - 0.0
07/02:20pm 10.0 2.6 -3.7 38 5.3 WSW 26 32 14 17 1016.3 - 0.0
07/02:10pm 10.1 3.1 -3.8 37 5.4 WSW 24 28 13 15 1016.1 - 0.0
07/02:00pm 9.9 2.8 -4.0 37 5.3 WSW 24 32 13 17 1016.1 - 0.0
07/01:50pm 9.8 2.0 -4.0 37 5.3 WSW 28 37 15 20 1016.1 - 0.0
07/01:40pm 9.4 1.9 -4.5 37 5.2 WSW 26 35 14 19 1016.1 - 0.0
07/01:30pm 9.1 1.0 -3.3 41 4.8 W 30 33 16 18 1015.9 - 0.0
07/01:20pm 9.0 0.9 -3.5 41 4.8 WSW 30 35 16 19 1015.8 - 0.0
07/01:10pm 9.8 2.4 -3.5 39 5.1 WSW 26 32 14 17 1015.6 - 0.0
07/01:00pm 9.7 2.3 -4.0 38 5.2 WSW 26 35 14 19 1015.6 - 0.0
07/12:50pm 9.6 3.0 -3.0 41 4.9 SW 22 28 12 15 1015.7 - 0.0
07/12:40pm 9.3 1.9 -3.4 40 4.9 SW 26 33 14 18 1015.9 - 0.0
07/12:30pm 9.5 2.5 -3.9 38 5.1 SW 24 30 13 16 1015.8 - 0.0
07/12:20pm 9.9 2.9 -3.2 39 5.1 WSW 24 30 13 16 1015.9 - 0.0
07/12:10pm 9.3 2.3 -3.5 40 4.9 WSW 24 35 13 19 1016.0 - 0.0
07/12:00pm 9.5 0.9 -3.8 39 5.1 WSW 32 37 17 20 1016.2 - 0.0
07/11:50am 9.3 3.1 -3.4 40 4.9 SW 20 30 11 16 1015.9 - 0.0
07/11:40am 8.4 1.0 -4.0 41 4.7 WSW 26 33 14 18 1016.1 - 0.0
07/11:30am 9.0 1.5 -4.2 39 5.0 WSW 26 32 14 17 1016.1 - 0.0
07/11:20am 9.2 2.9 -3.6 40 4.9 WSW 20 24 11 13 1016.2 - 0.0
07/11:10am 9.1 2.8 -4.4 38 5.1 WSW 20 28 11 15 1016.1 - 0.0
07/11:00am 8.8 2.5 -3.9 40 4.8 WSW 20 30 11 16 1016.2 - 0.0
07/10:50am 8.8 2.1 -4.0 40 4.8 WSW 22 30 12 16 1016.1 - 0.0
07/10:40am 8.8 2.5 -4.0 40 4.8 WSW 20 26 11 14 1016.1 - 0.0
07/10:30am 8.3 1.2 -4.1 41 4.6 WSW 24 30 13 16 1016.0 - 0.0
07/10:20am 8.6 1.5 -4.8 38 5.0 WSW 24 32 13 17 1015.7 - 0.0
07/10:10am 8.5 1.4 -4.0 41 4.7 WSW 24 30 13 16 1015.9 - 0.0
07/10:00am 8.3 1.3 -3.2 44 4.4 WSW 24 32 13 17 1016.0 - 0.0
07/09:50am 7.9 0.6 -3.1 45 4.2 WSW 26 32 14 17 1015.8 - 0.0
07/09:40am 8.3 2.1 -3.1 44 4.4 SW 20 24 11 13 1015.7 - 0.0
07/09:30am 7.5 0.0 -4.7 41 4.5 SW 26 32 14 17 1015.7 - 0.0
07/09:20am 7.6 0.7 -2.4 49 3.9 W 24 26 13 14 1015.6 - 0.0
07/09:10am 7.6 0.8 -1.9 51 3.7 W 24 32 13 17 1015.8 - 0.0
07/09:00am 7.3 -0.4 -2.6 49 3.8 W 28 33 15 18 1015.4 - 0.0
07/08:50am 7.4 0.1 -2.5 49 3.8 W 26 32 14 17 1015.4 - 0.0
07/08:40am 7.2 -0.4 -2.4 50 3.7 W 28 33 15 18 1015.2 - 0.0
07/08:30am 7.1 0.3 -1.9 53 3.5 W 24 33 13 18 1014.9 - 0.0
07/08:20am 6.9 -0.3 -1.7 54 3.4 W 26 32 14 17 1014.8 - 0.0
07/08:10am 6.9 0.6 -1.0 57 3.1 WNW 22 24 12 13 1014.5 - 0.0
07/08:00am 6.8 -0.2 -0.7 59 3.0 W 26 30 14 16 1014.4 - 0.0
07/07:50am 6.8 0.6 -0.3 60 2.9 W 22 32 12 17 1014.2 - 0.0
07/07:40am 6.8 0.0 0.5 64 2.6 W 26 33 14 18 1014.2 - 0.0
07/07:30am 6.8 -0.9 0.2 63 2.7 W 30 35 16 19 1014.1 - 0.0
07/07:20am 6.8 -0.9 0.2 63 2.7 W 30 39 16 21 1013.8 - 0.0
07/07:10am 6.7 0.4 1.7 70 2.1 W 24 30 13 16 1013.6 - 0.0
07/07:00am 6.9 -1.2 3.1 77 1.7 W 35 46 19 25 1013.7 - 0.0
07/06:50am 8.0 1.1 2.7 69 2.3 W 28 43 15 23 1013.7 - 0.0
07/06:40am 8.2 1.9 4.0 75 1.9 WNW 26 33 14 18 1013.3 - 0.0
07/06:30am 8.1 2.3 4.2 76 1.8 WNW 24 32 13 17 1013.2 - 0.0
07/06:20am 8.0 2.3 5.1 82 1.3 WNW 24 28 13 15 1012.9 - 0.0
07/06:10am 8.0 2.4 5.2 82 1.3 WNW 24 32 13 17 1012.8 - 0.0
07/06:00am 8.0 3.2 5.4 84 1.2 WNW 20 26 11 14 1012.8 - 0.0
07/05:50am 7.8 3.0 5.5 85 1.1 NW 20 22 11 12 1012.8 - 0.0
07/05:40am 7.7 2.9 5.7 87 0.9 WNW 20 24 11 13 1013.0 - 0.0
07/05:30am 7.6 2.5 5.9 89 0.8 WNW 22 28 12 15 1013.3 - 0.0
07/05:20am 7.7 2.2 6.1 90 0.8 WNW 24 26 13 14 1013.4 - 0.0
07/05:10am 7.8 2.7 6.2 90 0.8 WNW 22 28 12 15 1013.4 - 0.0
07/05:00am 7.8 2.7 6.0 88 0.9 WNW 22 28 12 15 1013.6 - 0.0
07/04:50am 7.9 3.1 5.8 86 1.0 WNW 20 28 11 15 1013.6 - 0.0
07/04:40am 7.9 3.1 5.7 86 1.0 WNW 20 28 11 15 1013.7 - 0.0
07/04:30am 8.0 3.7 5.3 83 1.3 WNW 17 22 9 12 1013.9 - 0.0
07/04:20am 8.1 3.8 5.1 81 1.4 WNW 17 22 9 12 1013.8 - 0.0
07/04:10am 8.2 3.4 4.8 79 1.6 NW 19 22 10 12 1013.9 - 0.0
07/04:00am 8.3 3.9 4.7 78 1.7 NW 17 24 9 13 1014.0 - 0.0
07/03:50am 8.3 3.5 4.6 77 1.7 WNW 19 22 10 12 1014.1 - 0.0
07/03:40am 8.3 2.9 4.3 76 1.8 WNW 22 26 12 14 1014.4 - 0.0
07/03:30am 8.0 3.1 4.1 76 1.8 WNW 19 22 10 12 1014.6 - 0.0
07/03:20am 7.6 3.8 3.9 77 1.7 NW 13 17 7 9 1014.5 - 0.0
07/03:10am 7.8 4.0 3.7 75 1.8 NW 13 19 7 10 1014.7 - 0.0
07/03:00am 7.9 3.7 3.6 74 1.9 NW 15 17 8 9 1014.9 - 0.0
07/02:50am 7.7 3.8 3.5 75 1.9 NW 13 17 7 9 1015.0 - 0.0
07/02:40am 7.4 3.5 3.4 76 1.8 WNW 13 15 7 8 1015.2 - 0.0
07/02:30am 7.4 3.8 3.2 75 1.9 NW 11 13 6 7 1015.2 - 0.0
07/02:20am 7.5 3.5 3.1 73 1.9 WNW 13 17 7 9 1015.3 - 0.0
07/02:10am 7.4 3.5 3.2 75 1.9 WNW 13 17 7 9 1015.5 - 0.0
07/02:00am 7.3 3.3 3.1 75 1.9 WNW 13 17 7 9 1015.7 - 0.0
07/01:50am 7.2 2.9 3.1 75 1.8 WNW 15 17 8 9 1015.9 - 0.0
07/01:40am 6.9 3.3 3.1 77 1.7 NW 11 15 6 8 1016.1 - 0.0
07/01:30am 6.9 4.1 3.2 77 1.6 NNW 7 11 4 6 1016.1 - 0.0
07/01:20am 7.0 3.1 3.2 77 1.7 NW 13 15 7 8 1016.2 - 0.0
07/01:10am 7.1 3.2 3.3 77 1.7 NW 13 15 7 8 1016.2 - 0.0
07/01:00am 7.0 2.7 3.3 77 1.6 NW 15 19 8 10 1016.3 - 0.0
07/12:50am 6.7 2.5 3.6 80 1.4 NW 15 19 8 10 1016.4 - 0.0
07/12:40am 6.7 2.5 3.9 82 1.3 NW 15 17 8 9 1016.4 - 0.0
07/12:30am 6.7 2.6 4.1 83 1.2 NNW 15 19 8 10 1016.4 - 0.0
07/12:20am 6.9 2.8 4.3 83 1.2 NW 15 19 8 10 1016.6 - 0.0
07/12:10am 7.1 2.3 4.4 83 1.2 NW 19 20 10 11 1016.6 - 0.0
07/12:00am 7.3 2.5 4.6 83 1.2 NW 19 20 10 11 1016.7 - 0.0
 
Date/Time
EST
Temp
°C
App
Temp
°C
Dew
Point
°C
Rel
Hum
%
Delta-T
°C
Wind Press
QNH
hPa
Press
MSL
hPa
Rain since
9am
mm
Dir  Spd
km/h
Gust
km/h
Spd
kts
Gust
kts
06/11:50pm 7.4 3.0 4.8 83 1.2 NW 17 19 9 10 1016.8 - 0.0
06/11:40pm 7.4 2.5 5.0 85 1.1 NW 20 24 11 13 1016.7 - 0.0
06/11:30pm 7.6 2.9 5.1 84 1.2 NW 19 24 10 13 1016.8 - 0.0
06/11:20pm 7.7 3.4 5.3 85 1.1 NW 17 19 9 10 1017.0 - 0.0
06/11:10pm 7.8 3.6 5.5 85 1.1 NW 17 20 9 11 1017.0 - 0.0
06/11:00pm 7.7 3.9 5.7 87 0.9 NW 15 19 8 10 1017.0 - 0.0
06/10:50pm 7.8 4.4 5.8 87 0.9 NW 13 17 7 9 1017.2 - 0.0
06/10:40pm 7.7 4.7 5.9 88 0.8 NW 11 15 6 8 1017.3 - 0.0
06/10:30pm 7.7 4.7 6.0 89 0.8 NW 11 15 6 8 1017.3 - 0.0
06/10:20pm 7.6 5.4 6.1 90 0.7 NW 7 11 4 6 1017.5 - 0.0
06/10:10pm 7.4 4.4 6.2 92 0.6 NNW 11 13 6 7 1017.5 - 0.0
06/10:00pm 7.4 5.2 6.1 91 0.6 NNW 7 9 4 5 1017.6 - 0.0
06/09:50pm 7.5 4.9 6.2 91 0.6 NNW 9 9 5 5 1017.7 - 0.0
06/09:40pm 7.8 4.9 6.3 90 0.7 N 11 15 6 8 1017.8 - 0.0
06/09:30pm 7.8 4.5 6.3 90 0.7 N 13 13 7 7 1017.8 - 0.0
06/09:20pm 7.9 5.0 6.3 90 0.8 NNW 11 11 6 6 1017.9 - 0.0
06/09:10pm 8.2 5.7 6.4 88 0.9 NNW 9 11 5 6 1017.9 - 0.0
06/09:00pm 8.2 5.3 6.4 88 0.9 NNW 11 13 6 7 1018.1 - 0.0
06/08:50pm 8.0 5.4 6.3 89 0.8 N 9 13 5 7 1018.1 - 0.0
06/08:40pm 8.2 6.2 6.2 87 1.0 N 6 7 3 4 1018.1 - 0.0
06/08:30pm 8.3 6.1 6.2 87 1.0 N 7 9 4 5 1018.2 - 0.0
06/08:20pm 8.3 5.7 6.3 87 1.0 NNW 9 9 5 5 1018.2 - 0.0
06/08:10pm 8.5 6.3 6.3 86 1.1 NNW 7 9 4 5 1018.1 - 0.0
06/08:00pm 8.8 6.6 6.3 84 1.2 NNW 7 9 4 5 1018.1 - 0.0
06/07:50pm 8.9 6.9 6.4 84 1.2 NNW 6 7 3 4 1018.0 - 0.0
06/07:40pm 9.2 7.0 6.4 83 1.4 NW 7 9 4 5 1018.0 - 0.0
06/07:30pm 9.5 7.0 6.6 82 1.4 NW 9 13 5 7 1018.1 - 0.0
06/07:20pm 9.7 6.8 6.6 81 1.5 NW 11 13 6 7 1018.2 - 0.0
06/07:10pm 9.8 6.9 6.7 81 1.5 WNW 11 15 6 8 1018.2 - 0.0
06/07:00pm 9.9 6.7 6.7 80 1.6 NW 13 17 7 9 1018.2 - 0.0
06/06:50pm 10.0 6.4 6.7 80 1.6 NW 15 17 8 9 1018.3 - 0.0
06/06:40pm 10.1 6.9 6.7 79 1.7 NW 13 17 7 9 1018.3 - 0.0
06/06:30pm 10.4 6.8 6.6 77 1.9 NW 15 17 8 9 1018.3 - 0.0

Other formats

Comma delimited format used in spreadsheet applications
http://www.bom.gov.au/fwo/IDN60801/IDN60801.99764.axf

JavaScript Object Notation format (JSON) in row-major order
http://www.bom.gov.au/fwo/IDN60801/IDN60801.99764.json

Data quality

Most of these data are generated automatically and are frequently updated. Quality checks on data are not normally performed. It is possible for incorrect values to appear. Refer to information at About Latest Weather Observations and please check the disclaimer before using these data.